• Join FlightAware (Why Join?)
  • Login
  • US Flag 
07:15PM EDT


 

Airport Tracker/Info


-or-


 

Live Flight TrackerFlight Track Log ✈ FLG4073 ✈ 30-Apr-2012 ✈ KERI - KDTW

Flight Track Log - Related Links

Times and Time Zones

All times are in EDT time to prevent confusion due to time zone crossing. See the FLG4073 flight status page for this flight to view local times or setup timezone preferences in your user account.

Time Position Orientation Groundspeed Altitude Reporting Facility
EDT Latitude Longitude Course Direction KTS MPH feet Rate Location/Type
03:45PM 42.4567 -81.8922 276° West 336 387 19,000  Level FAA TRACON SMA TRACON (SMA)
03:46PM 42.4669 -82.0178 277° West 334 384 17,400 -1,680 Descending FAA TRACON SMA TRACON (SMA)
03:47PM 42.4764 -82.1169 276° West 331 381 16,200 -1,800 Descending FAA TRACON SMA TRACON (SMA)
03:47PM 42.4831 -82.2008 275° West 327 376 15,100 -1,680 Descending FAA TRACON SMA TRACON (SMA)
03:48PM 42.4878 -82.2803 277° West 323 372 14,000 -1,740 Descending FAA TRACON SMA TRACON (SMA)
03:49PM 42.4944 -82.3572 273° West 320 368 13,000 -1,560 Descending Cleveland Center
03:49PM 42.4975 -82.4333 278° West 302 348 12,000 -600 Descending Cleveland Center
03:50PM 42.5083 -82.5378 246° West 266 306 12,000 -420 Level Cleveland Center
03:51PM 42.4817 -82.6186 247° West 245 282 11,200 -1,140 Descending Cleveland Center
03:52PM 42.4531 -82.7078 245° Southwest 238 274 9,700 -1,200 Descending Cleveland Center
03:53PM 42.4267 -82.7858 263° West 236 272 8,800 -1,020 Descending Cleveland Center
03:55PM 42.4186 -82.8697 267° West 239 275 7,700 -1,020 Descending Cleveland Center
03:55PM 42.4147 -82.9625 262° West 231 266 6,900 -900 Descending Cleveland Center
03:56PM 42.4067 -83.0436 249° West 225 259 6,000 -840 Descending Cleveland Center
03:57PM 42.3842 -83.1217 252° West 216 249 5,200 -1,080 Descending Cleveland Center
03:58PM 42.3725 -83.1692 248° West 206 237 4,200 -1,380 Descending FAA TRACON SMA TRACON (SMA)
03:59PM 42.3589 -83.2158 224° Southwest 200 230 3,400 -960 Descending FAA TRACON SMA TRACON (SMA)
03:59PM 42.3328 -83.2497 209° Southwest 187 215 3,000 -600 Descending FAA TRACON SMA TRACON (SMA)
04:00PM 42.3036 -83.2714 210° Southwest 178 205 2,600 -780 Descending FAA TRACON SMA TRACON (SMA)
04:01PM 42.2781 -83.2917 208° Southwest 148 170 2,000 -780 Descending FAA TRACON SMA TRACON (SMA)
04:01PM 42.2575 -83.3064 208° Southwest 123 142 1,600 -720 Descending FAA TRACON SMA TRACON (SMA)
04:02PM 42.2356 -83.3222 209° Southwest 136 157 1,100 -660 Descending FAA TRACON SMA TRACON (SMA)
04:03PM 42.2214 -83.3328 209° Southwest 137 158 800 -480 Descending FAA TRACON SMA TRACON (SMA)